sensor_id;sensor_type;location;lat;lon;timestamp;temperature;humidity
12006;DHT22;6062;47.294;12.182;2022-09-16T00:00:21;11.60;75.00
12006;DHT22;6062;47.294;12.182;2022-09-16T00:02:50;11.40;74.90
12006;DHT22;6062;47.294;12.182;2022-09-16T00:05:16;11.40;75.10
12006;DHT22;6062;47.294;12.182;2022-09-16T00:07:42;11.30;75.30
12006;DHT22;6062;47.294;12.182;2022-09-16T00:10:08;11.20;75.70
12006;DHT22;6062;47.294;12.182;2022-09-16T00:12:34;11.20;76.10
12006;DHT22;6062;47.294;12.182;2022-09-16T00:14:59;11.20;76.50
12006;DHT22;6062;47.294;12.182;2022-09-16T00:17:25;11.10;76.60
12006;DHT22;6062;47.294;12.182;2022-09-16T00:19:51;11.10;76.60
12006;DHT22;6062;47.294;12.182;2022-09-16T00:22:17;11.20;76.40
12006;DHT22;6062;47.294;12.182;2022-09-16T00:24:43;11.10;76.50
12006;DHT22;6062;47.294;12.182;2022-09-16T00:27:09;11.20;76.50
12006;DHT22;6062;47.294;12.182;2022-09-16T00:29:35;11.10;76.60
12006;DHT22;6062;47.294;12.182;2022-09-16T00:32:01;11.10;76.20
12006;DHT22;6062;47.294;12.182;2022-09-16T00:34:27;11.10;75.80
12006;DHT22;6062;47.294;12.182;2022-09-16T00:36:52;11.10;75.70
12006;DHT22;6062;47.294;12.182;2022-09-16T00:39:18;11.10;75.40
12006;DHT22;6062;47.294;12.182;2022-09-16T00:41:44;11.10;75.20
12006;DHT22;6062;47.294;12.182;2022-09-16T00:47:16;11.10;74.50
12006;DHT22;6062;47.294;12.182;2022-09-16T00:49:45;11.20;74.10
12006;DHT22;6062;47.294;12.182;2022-09-16T00:52:13;11.20;73.70
12006;DHT22;6062;47.294;12.182;2022-09-16T00:54:41;11.20;73.20
12006;DHT22;6062;47.294;12.182;2022-09-16T00:57:09;11.20;73.00
12006;DHT22;6062;47.294;12.182;2022-09-16T00:59:43;11.20;72.80
12006;DHT22;6062;47.294;12.182;2022-09-16T01:02:15;11.20;73.00
12006;DHT22;6062;47.294;12.182;2022-09-16T01:07:38;11.10;72.90
12006;DHT22;6062;47.294;12.182;2022-09-16T01:10:08;11.00;73.10
12006;DHT22;6062;47.294;12.182;2022-09-16T01:12:35;11.00;73.30
12006;DHT22;6062;47.294;12.182;2022-09-16T01:15:02;10.90;74.00
12006;DHT22;6062;47.294;12.182;2022-09-16T01:27:03;10.70;76.10
12006;DHT22;6062;47.294;12.182;2022-09-16T01:30:28;10.60;76.50
12006;DHT22;6062;47.294;12.182;2022-09-16T01:32:59;10.60;76.70
12006;DHT22;6062;47.294;12.182;2022-09-16T01:38:17;10.60;77.20
12006;DHT22;6062;47.294;12.182;2022-09-16T01:41:17;10.60;77.40
12006;DHT22;6062;47.294;12.182;2022-09-16T01:44:07;10.70;76.80
12006;DHT22;6062;47.294;12.182;2022-09-16T01:47:01;10.70;76.90
12006;DHT22;6062;47.294;12.182;2022-09-16T01:50:15;10.70;76.40
12006;DHT22;6062;47.294;12.182;2022-09-16T01:55:51;10.70;75.80
12006;DHT22;6062;47.294;12.182;2022-09-16T01:58:47;10.70;75.80
12006;DHT22;6062;47.294;12.182;2022-09-16T02:01:25;10.70;75.70
12006;DHT22;6062;47.294;12.182;2022-09-16T02:04:00;10.70;75.80
12006;DHT22;6062;47.294;12.182;2022-09-16T02:06:31;10.70;75.80
12006;DHT22;6062;47.294;12.182;2022-09-16T02:09:03;10.70;75.60
12006;DHT22;6062;47.294;12.182;2022-09-16T02:11:32;10.70;75.60
12006;DHT22;6062;47.294;12.182;2022-09-16T02:14:04;10.70;75.60
12006;DHT22;6062;47.294;12.182;2022-09-16T02:16:51;10.70;75.80
12006;DHT22;6062;47.294;12.182;2022-09-16T02:19:25;10.70;76.20
12006;DHT22;6062;47.294;12.182;2022-09-16T02:21:56;10.70;75.90
12006;DHT22;6062;47.294;12.182;2022-09-16T02:24:28;10.80;75.90
12006;DHT22;6062;47.294;12.182;2022-09-16T02:26:59;10.80;75.90
12006;DHT22;6062;47.294;12.182;2022-09-16T02:29:32;10.80;76.00
12006;DHT22;6062;47.294;12.182;2022-09-16T02:32:05;10.80;76.10
12006;DHT22;6062;47.294;12.182;2022-09-16T02:34:37;10.80;76.10
12006;DHT22;6062;47.294;12.182;2022-09-16T02:37:28;10.80;76.00
12006;DHT22;6062;47.294;12.182;2022-09-16T02:40:01;10.80;76.00
12006;DHT22;6062;47.294;12.182;2022-09-16T02:42:30;10.90;75.90
12006;DHT22;6062;47.294;12.182;2022-09-16T02:44:58;10.90;75.80
12006;DHT22;6062;47.294;12.182;2022-09-16T02:50:25;10.90;75.90
12006;DHT22;6062;47.294;12.182;2022-09-16T02:53:07;10.90;76.00
12006;DHT22;6062;47.294;12.182;2022-09-16T02:55:59;10.90;75.90
12006;DHT22;6062;47.294;12.182;2022-09-16T02:58:30;10.90;76.00
12006;DHT22;6062;47.294;12.182;2022-09-16T03:00:56;10.90;75.60
12006;DHT22;6062;47.294;12.182;2022-09-16T03:03:23;10.90;75.60
12006;DHT22;6062;47.294;12.182;2022-09-16T03:08:38;10.90;75.70
12006;DHT22;6062;47.294;12.182;2022-09-16T03:20:54;10.90;75.40
12006;DHT22;6062;47.294;12.182;2022-09-16T03:26:35;10.90;75.70
12006;DHT22;6062;47.294;12.182;2022-09-16T03:29:18;10.80;75.70
12006;DHT22;6062;47.294;12.182;2022-09-16T03:34:43;10.80;75.80
12006;DHT22;6062;47.294;12.182;2022-09-16T03:37:18;10.80;75.70
12006;DHT22;6062;47.294;12.182;2022-09-16T03:39:50;10.80;75.80
12006;DHT22;6062;47.294;12.182;2022-09-16T03:42:20;10.80;75.70
12006;DHT22;6062;47.294;12.182;2022-09-16T03:44:46;10.80;75.50
12006;DHT22;6062;47.294;12.182;2022-09-16T03:47:12;10.80;75.60
12006;DHT22;6062;47.294;12.182;2022-09-16T03:49:38;10.80;75.40
12006;DHT22;6062;47.294;12.182;2022-09-16T03:52:04;10.80;75.10
12006;DHT22;6062;47.294;12.182;2022-09-16T03:54:31;10.80;75.10
12006;DHT22;6062;47.294;12.182;2022-09-16T03:56:57;10.70;75.10
12006;DHT22;6062;47.294;12.182;2022-09-16T03:59:23;10.60;75.40
12006;DHT22;6062;47.294;12.182;2022-09-16T04:01:48;10.60;75.80
12006;DHT22;6062;47.294;12.182;2022-09-16T04:04:14;10.60;76.00
12006;DHT22;6062;47.294;12.182;2022-09-16T04:06:40;10.60;76.20
12006;DHT22;6062;47.294;12.182;2022-09-16T04:09:05;10.60;76.60
12006;DHT22;6062;47.294;12.182;2022-09-16T04:11:33;10.60;76.80
12006;DHT22;6062;47.294;12.182;2022-09-16T04:14:00;10.60;76.90
12006;DHT22;6062;47.294;12.182;2022-09-16T04:16:26;10.60;77.00
12006;DHT22;6062;47.294;12.182;2022-09-16T04:18:52;10.60;77.00
12006;DHT22;6062;47.294;12.182;2022-09-16T04:21:18;10.60;76.90
12006;DHT22;6062;47.294;12.182;2022-09-16T04:23:44;10.60;76.80
12006;DHT22;6062;47.294;12.182;2022-09-16T04:26:10;10.60;76.80
12006;DHT22;6062;47.294;12.182;2022-09-16T04:28:36;10.70;76.90
12006;DHT22;6062;47.294;12.182;2022-09-16T04:31:04;10.70;77.00
12006;DHT22;6062;47.294;12.182;2022-09-16T04:33:33;10.70;77.00
12006;DHT22;6062;47.294;12.182;2022-09-16T04:36:08;10.70;76.90
12006;DHT22;6062;47.294;12.182;2022-09-16T04:38:37;10.80;77.00
12006;DHT22;6062;47.294;12.182;2022-09-16T04:41:06;10.80;76.60
12006;DHT22;6062;47.294;12.182;2022-09-16T04:43:34;10.80;76.70
12006;DHT22;6062;47.294;12.182;2022-09-16T04:46:00;10.80;76.60
12006;DHT22;6062;47.294;12.182;2022-09-16T04:48:27;10.80;77.30
12006;DHT22;6062;47.294;12.182;2022-09-16T04:50:53;10.80;76.60
12006;DHT22;6062;47.294;12.182;2022-09-16T04:53:20;10.80;76.70
12006;DHT22;6062;47.294;12.182;2022-09-16T04:55:46;10.80;76.70
12006;DHT22;6062;47.294;12.182;2022-09-16T04:58:13;10.90;76.70
12006;DHT22;6062;47.294;12.182;2022-09-16T05:00:39;10.90;76.60
12006;DHT22;6062;47.294;12.182;2022-09-16T05:03:06;10.90;76.50
12006;DHT22;6062;47.294;12.182;2022-09-16T05:05:32;10.90;76.30
12006;DHT22;6062;47.294;12.182;2022-09-16T05:07:58;10.90;76.00
12006;DHT22;6062;47.294;12.182;2022-09-16T05:10:23;10.90;75.90
12006;DHT22;6062;47.294;12.182;2022-09-16T05:12:50;10.80;76.00
12006;DHT22;6062;47.294;12.182;2022-09-16T05:15:16;10.80;76.40
12006;DHT22;6062;47.294;12.182;2022-09-16T05:17:42;10.80;76.50
12006;DHT22;6062;47.294;12.182;2022-09-16T05:20:08;10.80;77.40
12006;DHT22;6062;47.294;12.182;2022-09-16T05:22:34;10.70;76.80
12006;DHT22;6062;47.294;12.182;2022-09-16T05:25:00;10.70;76.90
12006;DHT22;6062;47.294;12.182;2022-09-16T05:27:29;10.70;76.80
12006;DHT22;6062;47.294;12.182;2022-09-16T05:29:55;10.70;77.10
12006;DHT22;6062;47.294;12.182;2022-09-16T05:32:21;10.70;76.90
12006;DHT22;6062;47.294;12.182;2022-09-16T05:34:47;10.70;77.00
12006;DHT22;6062;47.294;12.182;2022-09-16T05:37:14;10.70;76.80
12006;DHT22;6062;47.294;12.182;2022-09-16T05:39:39;10.70;76.70
12006;DHT22;6062;47.294;12.182;2022-09-16T05:42:05;10.60;76.70
12006;DHT22;6062;47.294;12.182;2022-09-16T05:44:31;10.60;76.80
12006;DHT22;6062;47.294;12.182;2022-09-16T05:46:57;10.60;77.30
12006;DHT22;6062;47.294;12.182;2022-09-16T05:49:22;10.60;77.30
12006;DHT22;6062;47.294;12.182;2022-09-16T05:51:49;10.60;77.10
12006;DHT22;6062;47.294;12.182;2022-09-16T05:54:15;10.50;77.00
12006;DHT22;6062;47.294;12.182;2022-09-16T05:56:45;10.50;77.30
12006;DHT22;6062;47.294;12.182;2022-09-16T05:59:12;10.50;77.00
12006;DHT22;6062;47.294;12.182;2022-09-16T06:01:39;10.40;76.80
12006;DHT22;6062;47.294;12.182;2022-09-16T06:04:06;10.30;76.80
12006;DHT22;6062;47.294;12.182;2022-09-16T06:06:37;10.20;77.10
12006;DHT22;6062;47.294;12.182;2022-09-16T06:11:42;10.00;77.70
12006;DHT22;6062;47.294;12.182;2022-09-16T06:14:10;9.90;78.40
12006;DHT22;6062;47.294;12.182;2022-09-16T06:16:38;9.80;79.00
12006;DHT22;6062;47.294;12.182;2022-09-16T06:19:07;9.70;79.40
12006;DHT22;6062;47.294;12.182;2022-09-16T06:21:36;9.70;79.40
12006;DHT22;6062;47.294;12.182;2022-09-16T06:24:02;9.70;79.60
12006;DHT22;6062;47.294;12.182;2022-09-16T06:26:28;9.70;79.70
12006;DHT22;6062;47.294;12.182;2022-09-16T06:28:54;9.70;79.80
12006;DHT22;6062;47.294;12.182;2022-09-16T06:33:45;9.60;79.80
12006;DHT22;6062;47.294;12.182;2022-09-16T06:36:14;9.60;79.80
12006;DHT22;6062;47.294;12.182;2022-09-16T06:38:42;9.60;80.10
12006;DHT22;6062;47.294;12.182;2022-09-16T06:41:11;9.70;80.30
12006;DHT22;6062;47.294;12.182;2022-09-16T06:43:37;9.60;80.40
12006;DHT22;6062;47.294;12.182;2022-09-16T06:46:08;9.70;80.50
12006;DHT22;6062;47.294;12.182;2022-09-16T06:48:41;9.70;80.50
12006;DHT22;6062;47.294;12.182;2022-09-16T06:51:10;9.70;80.10
12006;DHT22;6062;47.294;12.182;2022-09-16T06:53:37;9.80;80.00
12006;DHT22;6062;47.294;12.182;2022-09-16T06:56:06;9.80;79.30
12006;DHT22;6062;47.294;12.182;2022-09-16T06:58:35;9.80;79.00
12006;DHT22;6062;47.294;12.182;2022-09-16T07:01:08;9.80;78.90
12006;DHT22;6062;47.294;12.182;2022-09-16T07:03:37;9.70;78.90
12006;DHT22;6062;47.294;12.182;2022-09-16T07:06:04;9.70;78.80
12006;DHT22;6062;47.294;12.182;2022-09-16T07:08:31;9.70;78.90
12006;DHT22;6062;47.294;12.182;2022-09-16T07:11:00;9.70;79.30
12006;DHT22;6062;47.294;12.182;2022-09-16T07:13:28;9.60;79.00
12006;DHT22;6062;47.294;12.182;2022-09-16T07:16:05;9.60;78.80
12006;DHT22;6062;47.294;12.182;2022-09-16T07:18:33;9.60;79.30
12006;DHT22;6062;47.294;12.182;2022-09-16T07:21:23;9.50;79.50
12006;DHT22;6062;47.294;12.182;2022-09-16T07:23:50;9.50;80.70
12006;DHT22;6062;47.294;12.182;2022-09-16T07:26:21;9.50;80.60
12006;DHT22;6062;47.294;12.182;2022-09-16T07:28:50;9.50;80.70
12006;DHT22;6062;47.294;12.182;2022-09-16T07:31:19;9.50;80.80
12006;DHT22;6062;47.294;12.182;2022-09-16T07:33:51;9.60;81.60
12006;DHT22;6062;47.294;12.182;2022-09-16T07:36:21;9.60;81.20
12006;DHT22;6062;47.294;12.182;2022-09-16T07:38:50;9.70;81.00
12006;DHT22;6062;47.294;12.182;2022-09-16T07:41:19;9.80;81.30
12006;DHT22;6062;47.294;12.182;2022-09-16T07:43:46;9.80;81.20
12006;DHT22;6062;47.294;12.182;2022-09-16T07:46:14;9.90;80.50
12006;DHT22;6062;47.294;12.182;2022-09-16T07:48:41;10.00;80.00
12006;DHT22;6062;47.294;12.182;2022-09-16T07:51:11;10.00;79.80
12006;DHT22;6062;47.294;12.182;2022-09-16T07:53:40;9.90;79.70
12006;DHT22;6062;47.294;12.182;2022-09-16T07:56:14;9.90;79.40
12006;DHT22;6062;47.294;12.182;2022-09-16T07:58:43;9.90;79.90
12006;DHT22;6062;47.294;12.182;2022-09-16T08:01:11;9.90;80.70
12006;DHT22;6062;47.294;12.182;2022-09-16T08:03:38;9.90;80.80
12006;DHT22;6062;47.294;12.182;2022-09-16T08:06:07;9.90;80.80
12006;DHT22;6062;47.294;12.182;2022-09-16T08:08:35;9.90;81.40
12006;DHT22;6062;47.294;12.182;2022-09-16T08:11:01;10.00;81.80
12006;DHT22;6062;47.294;12.182;2022-09-16T08:13:30;10.10;81.30
12006;DHT22;6062;47.294;12.182;2022-09-16T08:16:03;10.10;81.50
12006;DHT22;6062;47.294;12.182;2022-09-16T08:18:34;10.10;80.10
12006;DHT22;6062;47.294;12.182;2022-09-16T08:21:08;10.10;79.80
12006;DHT22;6062;47.294;12.182;2022-09-16T08:23:36;10.10;80.00
12006;DHT22;6062;47.294;12.182;2022-09-16T08:26:03;10.10;80.60
12006;DHT22;6062;47.294;12.182;2022-09-16T08:28:30;10.10;80.30
12006;DHT22;6062;47.294;12.182;2022-09-16T08:31:00;10.10;80.50
12006;DHT22;6062;47.294;12.182;2022-09-16T08:33:27;10.10;80.90
12006;DHT22;6062;47.294;12.182;2022-09-16T08:36:11;10.10;81.20
12006;DHT22;6062;47.294;12.182;2022-09-16T08:38:39;10.10;81.20
12006;DHT22;6062;47.294;12.182;2022-09-16T08:46:53;10.00;81.50
12006;DHT22;6062;47.294;12.182;2022-09-16T08:49:38;10.10;81.20
12006;DHT22;6062;47.294;12.182;2022-09-16T08:52:11;10.10;81.40
12006;DHT22;6062;47.294;12.182;2022-09-16T08:54:49;10.20;81.60
12006;DHT22;6062;47.294;12.182;2022-09-16T08:57:20;10.20;81.40
12006;DHT22;6062;47.294;12.182;2022-09-16T08:59:51;10.20;81.20
12006;DHT22;6062;47.294;12.182;2022-09-16T09:05:02;10.30;81.30
12006;DHT22;6062;47.294;12.182;2022-09-16T09:08:05;10.30;81.60
12006;DHT22;6062;47.294;12.182;2022-09-16T09:10:47;10.30;82.50
12006;DHT22;6062;47.294;12.182;2022-09-16T09:13:49;10.40;82.40
12006;DHT22;6062;47.294;12.182;2022-09-16T09:31:17;10.60;80.80
12006;DHT22;6062;47.294;12.182;2022-09-16T09:34:04;10.50;80.70
12006;DHT22;6062;47.294;12.182;2022-09-16T09:39:53;10.60;80.80
12006;DHT22;6062;47.294;12.182;2022-09-16T09:42:38;10.60;80.90
12006;DHT22;6062;47.294;12.182;2022-09-16T09:45:32;10.60;80.90
12006;DHT22;6062;47.294;12.182;2022-09-16T09:48:24;10.70;82.30
12006;DHT22;6062;47.294;12.182;2022-09-16T09:51:00;10.80;84.10
12006;DHT22;6062;47.294;12.182;2022-09-16T09:53:49;11.00;86.80
12006;DHT22;6062;47.294;12.182;2022-09-16T09:56:20;11.30;86.60
12006;DHT22;6062;47.294;12.182;2022-09-16T10:01:18;11.70;82.50
12006;DHT22;6062;47.294;12.182;2022-09-16T10:03:47;11.90;80.90
12006;DHT22;6062;47.294;12.182;2022-09-16T10:06:14;12.10;79.90
12006;DHT22;6062;47.294;12.182;2022-09-16T10:08:51;12.20;80.00
12006;DHT22;6062;47.294;12.182;2022-09-16T10:11:29;12.30;80.20
12006;DHT22;6062;47.294;12.182;2022-09-16T10:13:58;12.40;79.30
12006;DHT22;6062;47.294;12.182;2022-09-16T10:16:37;12.60;79.10
12006;DHT22;6062;47.294;12.182;2022-09-16T10:19:18;12.80;80.80
12006;DHT22;6062;47.294;12.182;2022-09-16T10:21:50;13.00;82.00
12006;DHT22;6062;47.294;12.182;2022-09-16T10:24:36;13.40;83.20
12006;DHT22;6062;47.294;12.182;2022-09-16T10:27:29;13.80;79.00
12006;DHT22;6062;47.294;12.182;2022-09-16T10:32:59;14.40;74.50
12006;DHT22;6062;47.294;12.182;2022-09-16T10:35:34;14.50;73.00
12006;DHT22;6062;47.294;12.182;2022-09-16T10:38:05;14.60;70.90
12006;DHT22;6062;47.294;12.182;2022-09-16T10:40:38;14.60;69.60
12006;DHT22;6062;47.294;12.182;2022-09-16T10:43:37;14.50;68.80
12006;DHT22;6062;47.294;12.182;2022-09-16T10:46:04;14.30;68.60
12006;DHT22;6062;47.294;12.182;2022-09-16T10:48:31;14.10;68.40
12006;DHT22;6062;47.294;12.182;2022-09-16T10:51:02;13.90;68.60
12006;DHT22;6062;47.294;12.182;2022-09-16T10:53:36;13.60;69.10
12006;DHT22;6062;47.294;12.182;2022-09-16T10:56:21;13.40;70.10
12006;DHT22;6062;47.294;12.182;2022-09-16T10:59:00;13.30;70.40
12006;DHT22;6062;47.294;12.182;2022-09-16T11:10:29;12.60;73.50
12006;DHT22;6062;47.294;12.182;2022-09-16T11:13:52;12.50;74.20
12006;DHT22;6062;47.294;12.182;2022-09-16T11:20:31;12.20;75.20
12006;DHT22;6062;47.294;12.182;2022-09-16T11:23:13;12.20;76.20
12006;DHT22;6062;47.294;12.182;2022-09-16T11:31:47;12.00;76.10
12006;DHT22;6062;47.294;12.182;2022-09-16T11:37:23;12.00;76.70
12006;DHT22;6062;47.294;12.182;2022-09-16T11:43:12;12.00;77.20
12006;DHT22;6062;47.294;12.182;2022-09-16T11:45:48;12.10;76.50
12006;DHT22;6062;47.294;12.182;2022-09-16T11:48:53;12.10;75.50
12006;DHT22;6062;47.294;12.182;2022-09-16T11:51:45;12.10;74.90
12006;DHT22;6062;47.294;12.182;2022-09-16T11:57:04;12.00;74.80
12006;DHT22;6062;47.294;12.182;2022-09-16T11:59:44;12.00;75.10
12006;DHT22;6062;47.294;12.182;2022-09-16T12:02:55;12.10;75.10
12006;DHT22;6062;47.294;12.182;2022-09-16T12:05:44;12.10;75.90
12006;DHT22;6062;47.294;12.182;2022-09-16T12:11:31;12.20;74.20
12006;DHT22;6062;47.294;12.182;2022-09-16T12:14:30;12.30;73.00
12006;DHT22;6062;47.294;12.182;2022-09-16T12:17:21;12.30;73.80
12006;DHT22;6062;47.294;12.182;2022-09-16T12:20:30;12.40;73.70
12006;DHT22;6062;47.294;12.182;2022-09-16T12:26:11;12.50;74.10
12006;DHT22;6062;47.294;12.182;2022-09-16T12:29:05;12.60;74.50
12006;DHT22;6062;47.294;12.182;2022-09-16T12:31:45;12.70;74.30
12006;DHT22;6062;47.294;12.182;2022-09-16T12:40:21;13.30;73.80
12006;DHT22;6062;47.294;12.182;2022-09-16T12:46:51;13.60;72.50
12006;DHT22;6062;47.294;12.182;2022-09-16T12:55:42;14.20;69.40
12006;DHT22;6062;47.294;12.182;2022-09-16T12:58:42;14.30;68.70
12006;DHT22;6062;47.294;12.182;2022-09-16T13:01:34;14.30;67.90
12006;DHT22;6062;47.294;12.182;2022-09-16T13:06:52;14.10;67.10
12006;DHT22;6062;47.294;12.182;2022-09-16T13:09:29;14.10;67.90
12006;DHT22;6062;47.294;12.182;2022-09-16T13:12:02;14.10;67.30
12006;DHT22;6062;47.294;12.182;2022-09-16T13:14:35;14.10;66.20
12006;DHT22;6062;47.294;12.182;2022-09-16T13:17:11;14.00;66.30
12006;DHT22;6062;47.294;12.182;2022-09-16T13:19:45;14.00;67.00
12006;DHT22;6062;47.294;12.182;2022-09-16T13:23:22;14.10;67.20
12006;DHT22;6062;47.294;12.182;2022-09-16T13:31:17;14.20;65.90
12006;DHT22;6062;47.294;12.182;2022-09-16T13:38:58;14.30;64.80
12006;DHT22;6062;47.294;12.182;2022-09-16T13:41:43;14.30;64.40
12006;DHT22;6062;47.294;12.182;2022-09-16T13:49:54;14.20;65.10
12006;DHT22;6062;47.294;12.182;2022-09-16T13:52:32;14.20;65.20
12006;DHT22;6062;47.294;12.182;2022-09-16T13:55:01;14.20;65.10
12006;DHT22;6062;47.294;12.182;2022-09-16T14:06:46;13.90;64.70
12006;DHT22;6062;47.294;12.182;2022-09-16T14:09:44;13.80;65.40
12006;DHT22;6062;47.294;12.182;2022-09-16T14:15:33;13.60;65.90
12006;DHT22;6062;47.294;12.182;2022-09-16T14:18:02;13.50;65.80
12006;DHT22;6062;47.294;12.182;2022-09-16T14:20:28;13.50;66.00
12006;DHT22;6062;47.294;12.182;2022-09-16T14:23:18;13.30;66.20
12006;DHT22;6062;47.294;12.182;2022-09-16T14:25:44;13.30;66.50
12006;DHT22;6062;47.294;12.182;2022-09-16T14:28:27;13.30;66.50
12006;DHT22;6062;47.294;12.182;2022-09-16T14:30:56;13.30;66.10
12006;DHT22;6062;47.294;12.182;2022-09-16T14:33:46;13.30;66.20
12006;DHT22;6062;47.294;12.182;2022-09-16T14:36:24;13.30;65.90
12006;DHT22;6062;47.294;12.182;2022-09-16T14:38:58;13.40;65.80
12006;DHT22;6062;47.294;12.182;2022-09-16T14:41:38;13.30;65.50
12006;DHT22;6062;47.294;12.182;2022-09-16T14:46:49;13.30;64.80
12006;DHT22;6062;47.294;12.182;2022-09-16T14:49:22;13.30;65.10
12006;DHT22;6062;47.294;12.182;2022-09-16T14:51:59;13.30;65.60
12006;DHT22;6062;47.294;12.182;2022-09-16T14:54:29;13.30;66.30
12006;DHT22;6062;47.294;12.182;2022-09-16T14:57:00;13.30;66.10
12006;DHT22;6062;47.294;12.182;2022-09-16T14:59:31;13.20;66.40
12006;DHT22;6062;47.294;12.182;2022-09-16T15:05:36;13.00;67.10
12006;DHT22;6062;47.294;12.182;2022-09-16T15:10:47;12.60;66.40
12006;DHT22;6062;47.294;12.182;2022-09-16T15:13:18;12.40;66.90
12006;DHT22;6062;47.294;12.182;2022-09-16T15:15:54;12.10;67.00
12006;DHT22;6062;47.294;12.182;2022-09-16T15:18:37;11.90;67.30
12006;DHT22;6062;47.294;12.182;2022-09-16T15:21:17;11.60;68.10
12006;DHT22;6062;47.294;12.182;2022-09-16T15:23:47;11.40;68.50
12006;DHT22;6062;47.294;12.182;2022-09-16T15:26:22;11.20;68.80
12006;DHT22;6062;47.294;12.182;2022-09-16T15:31:37;10.90;69.10
12006;DHT22;6062;47.294;12.182;2022-09-16T15:36:48;10.50;69.80
12006;DHT22;6062;47.294;12.182;2022-09-16T15:39:27;10.40;70.30
12006;DHT22;6062;47.294;12.182;2022-09-16T15:42:20;10.20;70.90
12006;DHT22;6062;47.294;12.182;2022-09-16T15:44:55;10.10;71.70
12006;DHT22;6062;47.294;12.182;2022-09-16T15:47:29;10.00;71.40
12006;DHT22;6062;47.294;12.182;2022-09-16T15:52:33;9.90;71.60
12006;DHT22;6062;47.294;12.182;2022-09-16T15:55:39;9.90;71.80
12006;DHT22;6062;47.294;12.182;2022-09-16T15:58:22;9.90;72.10
12006;DHT22;6062;47.294;12.182;2022-09-16T16:00:58;9.90;72.20
12006;DHT22;6062;47.294;12.182;2022-09-16T16:03:51;9.80;72.40
12006;DHT22;6062;47.294;12.182;2022-09-16T16:12:18;9.80;72.00
12006;DHT22;6062;47.294;12.182;2022-09-16T16:14:44;9.80;72.00
12006;DHT22;6062;47.294;12.182;2022-09-16T16:17:13;9.80;71.90
12006;DHT22;6062;47.294;12.182;2022-09-16T16:19:45;9.70;72.10
12006;DHT22;6062;47.294;12.182;2022-09-16T16:22:13;9.70;72.10
12006;DHT22;6062;47.294;12.182;2022-09-16T16:24:40;9.70;72.10
12006;DHT22;6062;47.294;12.182;2022-09-16T16:27:07;9.60;72.00
12006;DHT22;6062;47.294;12.182;2022-09-16T16:29:34;9.60;72.50
12006;DHT22;6062;47.294;12.182;2022-09-16T16:32:06;9.60;72.50
12006;DHT22;6062;47.294;12.182;2022-09-16T16:34:41;9.50;72.30
12006;DHT22;6062;47.294;12.182;2022-09-16T16:37:09;9.50;72.50
12006;DHT22;6062;47.294;12.182;2022-09-16T16:39:37;9.40;72.60
12006;DHT22;6062;47.294;12.182;2022-09-16T16:42:03;9.40;72.60
12006;DHT22;6062;47.294;12.182;2022-09-16T16:44:33;9.40;72.70
12006;DHT22;6062;47.294;12.182;2022-09-16T16:46:59;9.40;72.70
12006;DHT22;6062;47.294;12.182;2022-09-16T16:49:25;9.30;73.20
12006;DHT22;6062;47.294;12.182;2022-09-16T16:51:52;9.30;72.50
12006;DHT22;6062;47.294;12.182;2022-09-16T16:54:22;9.30;72.80
12006;DHT22;6062;47.294;12.182;2022-09-16T16:56:49;9.20;72.80
12006;DHT22;6062;47.294;12.182;2022-09-16T16:59:16;9.20;73.00
12006;DHT22;6062;47.294;12.182;2022-09-16T17:01:43;9.10;72.90
12006;DHT22;6062;47.294;12.182;2022-09-16T17:04:10;9.10;72.80
12006;DHT22;6062;47.294;12.182;2022-09-16T17:06:37;9.10;73.00
12006;DHT22;6062;47.294;12.182;2022-09-16T17:09:05;9.00;72.80
12006;DHT22;6062;47.294;12.182;2022-09-16T17:11:32;9.00;72.80
12006;DHT22;6062;47.294;12.182;2022-09-16T17:14:01;8.90;72.90
12006;DHT22;6062;47.294;12.182;2022-09-16T17:16:29;8.90;73.20
12006;DHT22;6062;47.294;12.182;2022-09-16T17:18:58;8.80;73.20
12006;DHT22;6062;47.294;12.182;2022-09-16T17:21:30;8.80;73.30
12006;DHT22;6062;47.294;12.182;2022-09-16T17:23:57;8.70;73.50
12006;DHT22;6062;47.294;12.182;2022-09-16T17:26:24;8.70;73.60
12006;DHT22;6062;47.294;12.182;2022-09-16T17:28:52;8.60;73.70
12006;DHT22;6062;47.294;12.182;2022-09-16T17:31:23;8.60;73.70
12006;DHT22;6062;47.294;12.182;2022-09-16T17:33:55;8.50;73.70
12006;DHT22;6062;47.294;12.182;2022-09-16T17:36:23;8.50;73.70
12006;DHT22;6062;47.294;12.182;2022-09-16T17:39:01;8.50;73.70
12006;DHT22;6062;47.294;12.182;2022-09-16T17:41:29;8.40;73.90
12006;DHT22;6062;47.294;12.182;2022-09-16T17:43:57;8.40;73.90
12006;DHT22;6062;47.294;12.182;2022-09-16T17:46:25;8.40;74.00
12006;DHT22;6062;47.294;12.182;2022-09-16T17:48:58;8.40;74.00
12006;DHT22;6062;47.294;12.182;2022-09-16T17:51:26;8.30;74.20
12006;DHT22;6062;47.294;12.182;2022-09-16T17:53:52;8.30;74.30
12006;DHT22;6062;47.294;12.182;2022-09-16T17:56:18;8.30;74.30
12006;DHT22;6062;47.294;12.182;2022-09-16T17:58:46;8.30;74.30
12006;DHT22;6062;47.294;12.182;2022-09-16T18:01:14;8.30;74.30
12006;DHT22;6062;47.294;12.182;2022-09-16T18:03:44;8.20;73.90
12006;DHT22;6062;47.294;12.182;2022-09-16T18:06:20;8.20;73.90
12006;DHT22;6062;47.294;12.182;2022-09-16T18:08:47;8.20;73.70
12006;DHT22;6062;47.294;12.182;2022-09-16T18:11:15;8.30;73.60
12006;DHT22;6062;47.294;12.182;2022-09-16T18:13:41;8.30;73.50
12006;DHT22;6062;47.294;12.182;2022-09-16T18:16:10;8.30;73.20
12006;DHT22;6062;47.294;12.182;2022-09-16T18:18:39;8.20;73.50
12006;DHT22;6062;47.294;12.182;2022-09-16T18:21:09;8.20;73.50
12006;DHT22;6062;47.294;12.182;2022-09-16T18:23:39;8.20;73.40
12006;DHT22;6062;47.294;12.182;2022-09-16T18:26:12;8.20;73.20
12006;DHT22;6062;47.294;12.182;2022-09-16T18:28:40;8.20;73.10
12006;DHT22;6062;47.294;12.182;2022-09-16T18:31:09;8.20;73.30
12006;DHT22;6062;47.294;12.182;2022-09-16T18:33:37;8.20;73.30
12006;DHT22;6062;47.294;12.182;2022-09-16T18:36:09;8.20;73.00
12006;DHT22;6062;47.294;12.182;2022-09-16T18:38:37;8.20;73.10
12006;DHT22;6062;47.294;12.182;2022-09-16T18:41:14;8.10;73.70
12006;DHT22;6062;47.294;12.182;2022-09-16T18:43:45;8.10;73.50
12006;DHT22;6062;47.294;12.182;2022-09-16T18:46:16;8.00;73.60
12006;DHT22;6062;47.294;12.182;2022-09-16T18:48:48;8.00;75.20
12006;DHT22;6062;47.294;12.182;2022-09-16T18:51:20;8.00;74.50
12006;DHT22;6062;47.294;12.182;2022-09-16T18:53:57;8.00;74.50
12006;DHT22;6062;47.294;12.182;2022-09-16T18:56:29;8.00;74.30
12006;DHT22;6062;47.294;12.182;2022-09-16T18:59:09;7.90;74.60
12006;DHT22;6062;47.294;12.182;2022-09-16T19:01:41;7.90;74.50
12006;DHT22;6062;47.294;12.182;2022-09-16T19:04:10;7.90;74.20
12006;DHT22;6062;47.294;12.182;2022-09-16T19:06:38;8.00;74.10
12006;DHT22;6062;47.294;12.182;2022-09-16T19:09:14;7.90;73.90
12006;DHT22;6062;47.294;12.182;2022-09-16T19:11:42;8.00;73.80
12006;DHT22;6062;47.294;12.182;2022-09-16T19:14:09;8.00;73.70